You are not logged in, Click here to log in
廣州白雲國際機場CAN / ZGGG 中國廣東省省會廣州市
ICAO: ZGGG Country: 中國廣東省省會廣州市
Latitude: 23.3959 Longitude: 113.308
Total Arrivals: 75 Total Departures: 84
Latest Arrival: CI8521 (RCTP-ZGGG)Lun. Wang Latest Departure: CI797 (ZGGG-RCKH)Lun. Wang
Scenery:
METAR : ZGGG 220900Z 22002MPS 190V250 CAVOK 26/12 Q1023 NOSIG

廣州白雲國際機場CAN